LIPZ/VCE METAR and TAF weather

Enter ICAO airport designator
Station Type Date Time Source
LIPZ METAR 2021/10/22 18:50 UTC NOAA

LIPZ 221850Z 15004KT 3500 BR NSC 14/13 Q1017 NOSIG


Station Type Date Time Source
LIPZ Decoded METAR 2021/10/22 18:50 UTC NOAA

Venezia / Tessera, Italy (LIPZ) 45-30N 012-20E 6M
Oct 22, 2021 - 02:50 PM EDT / 2021.10.22 1850 UTC
Wind: from the SSE (150 degrees) at 5 MPH (4 KT):0
Visibility: 2 mile(s):0
Weather: mist
Temperature: 57 F (14 C)
Dew Point: 55 F (13 C)
Relative Humidity: 93%
Pressure (altimeter): 30.03 in. Hg (1017 hPa)
ob: LIPZ 221850Z 15004KT 3500 BR NSC 14/13 Q1017 NOSIG
cycle: 19

Station Type Date Time Source
LIPZ TAF 2021/10/22 18:21 UTC NOAA

TAF LIPZ 221700Z 2218/2324 VRB05KT 4000 BR SCT020
TEMPO 2222/2306 1200 BCFG BKN005
BECMG 2305/2307 01010KT 7000
BECMG 2310/2312 07012KT

Example: see airport list